Maria Desgagnes — VCWL — position and weather

sailwx.info

Track history (hours):
 
Tides and Currents Weather Stations Pressure Air Temp Water Temp Dewpoint Dewpoint Depression Visibility Wind Speed Wind Dir Waves Ship Positions

Maria Desgagnes

Last reported at 2014-Oct-01 06:12 UTC. Time now 2014-Oct-01 12:18 UTC.
Position N 45°37' W 073°30'.

Length 120 m; draft 7.2 m.

Type: Ship. MMSI: 316285000.

Date/timePositionNaut miles runAvg speedWind from/ knotsBaromVisibWave heightAir tempDewpointWater temp
2014-Oct-01 06:12N 45°37' W 073°30'0 0.0
2014-Oct-01 03:27N 45°37' W 073°30'1 0.1
2014-Sep-30 20:22N 45°37' W 073°30'0 0.0
2014-Sep-30 19:33N 45°37' W 073°30'0 0.0
2014-Sep-30 18:26N 45°37' W 073°30'0 0.0
2014-Sep-30 17:33N 45°37' W 073°30'7 7.1
2014-Sep-30 16:33N 45°30' W 073°31'1 0.7
2014-Sep-30 15:32N 45°29' W 073°31'5 5.0
2014-Sep-30 14:33N 45°24' W 073°33'3 3.1
2014-Sep-30 13:33N 45°24' W 073°37'9 8.8
2014-Sep-30 12:33N 45°22' W 073°49'6 6.1
2014-Sep-30 11:33N 45°18' W 073°56'7 7.4
2014-Sep-30 10:33N 45°13' W 074°03'1212.0
2014-Sep-30 09:33N 45°10' W 074°20'94 8.6
2014-Sep-29 22:33N 44°14' W 076°07'1211.6
2014-Sep-29 21:33N 44°08' W 076°20'1211.4
2014-Sep-29 20:33N 43°59' W 076°30'140 6.3
2014-Sep-28 22:28N 42°49' W 079°17'1313.6
2014-Sep-28 21:29N 42°41' W 079°31'1314.4
2014-Sep-28 20:33N 42°33' W 079°46'  
2014-Sep-23 00:12N 43°59' W 076°33'914.0
2014-Sep-22 23:33N 44°06' W 076°25'1311.9
2014-Sep-22 22:25N 44°14' W 076°09'91 7.7
2014-Sep-22 10:33N 45°08' W 074°26'1211.5
2014-Sep-22 09:34N 45°14' W 074°12'9 8.8
2014-Sep-22 08:33N 45°14' W 073°59'5 4.9
2014-Sep-22 07:33N 45°18' W 073°56'1 0.8
2014-Sep-22 06:34N 45°19' W 073°55'3 2.7
2014-Sep-22 05:34N 45°21' W 073°52'5 5.3
2014-Sep-22 04:33N 45°24' W 073°46'6 6.1
2014-Sep-22 03:33N 45°24' W 073°38'3 2.7
2014-Sep-22 02:34N 45°24' W 073°34'11 1.9
2014-Sep-21 20:33N 45°36' W 073°30'  
Track history (hours):
 
Tides and Currents Weather Stations Pressure Air Temp Water Temp Dewpoint Dewpoint Depression Visibility Wind Speed Wind Dir Waves Ship Positions

Maria Desgagnes

Last reported at 2014-Oct-01 06:12 UTC. Time now 2014-Oct-01 12:18 UTC.
Position N 45°37' W 073°30'.

Length 120 m; draft 7.2 m.

Type: Ship. MMSI: 316285000.

Date/timePositionNaut miles runAvg speedWind from/ knotsBaromVisibWave heightAir tempDewpointWater temp
2014-Oct-01 06:12N 45°37' W 073°30'0 0.0
2014-Oct-01 03:27N 45°37' W 073°30'1 0.1
2014-Sep-30 20:22N 45°37' W 073°30'0 0.0
2014-Sep-30 19:33N 45°37' W 073°30'0 0.0
2014-Sep-30 18:26N 45°37' W 073°30'0 0.0
2014-Sep-30 17:33N 45°37' W 073°30'7 7.1
2014-Sep-30 16:33N 45°30' W 073°31'1 0.7
2014-Sep-30 15:32N 45°29' W 073°31'5 5.0
2014-Sep-30 14:33N 45°24' W 073°33'3 3.1
2014-Sep-30 13:33N 45°24' W 073°37'9 8.8
2014-Sep-30 12:33N 45°22' W 073°49'6 6.1
2014-Sep-30 11:33N 45°18' W 073°56'7 7.4
2014-Sep-30 10:33N 45°13' W 074°03'1212.0
2014-Sep-30 09:33N 45°10' W 074°20'94 8.6
2014-Sep-29 22:33N 44°14' W 076°07'1211.6
2014-Sep-29 21:33N 44°08' W 076°20'1211.4
2014-Sep-29 20:33N 43°59' W 076°30'140 6.3
2014-Sep-28 22:28N 42°49' W 079°17'1313.6
2014-Sep-28 21:29N 42°41' W 079°31'1314.4
2014-Sep-28 20:33N 42°33' W 079°46'  
2014-Sep-23 00:12N 43°59' W 076°33'914.0
2014-Sep-22 23:33N 44°06' W 076°25'1311.9
2014-Sep-22 22:25N 44°14' W 076°09'91 7.7
2014-Sep-22 10:33N 45°08' W 074°26'1211.5
2014-Sep-22 09:34N 45°14' W 074°12'9 8.8
2014-Sep-22 08:33N 45°14' W 073°59'5 4.9
2014-Sep-22 07:33N 45°18' W 073°56'1 0.8
2014-Sep-22 06:34N 45°19' W 073°55'3 2.7
2014-Sep-22 05:34N 45°21' W 073°52'5 5.3
2014-Sep-22 04:33N 45°24' W 073°46'6 6.1
2014-Sep-22 03:33N 45°24' W 073°38'3 2.7
2014-Sep-22 02:34N 45°24' W 073°34'11 1.9
2014-Sep-21 20:33N 45°36' W 073°30'  

Dump ship's entire track history